Time;durP1;ratioP1;P1;durP2;ratioP2;P2;SDS_P1;SDS_P2;PMS_P1;PMS_P2;Temp;Humidity;BMP_temperature;BMP_pressure;BME280_temperature;BME280_humidity;BME280_pressure;Samples;Min_cycle;Max_cycle;Signal;HPM_P1;HPM_P2
2022/04/25 00:01:21;;;;;;;3.35;1.60;;;;;;;8.26;66.89;100135.16;6281321;22;20031;-72
2022/04/25 00:03:47;;;;;;;6.25;1.65;;;;;;;8.20;67.88;100146.00;6280307;22;20012;-73
2022/04/25 00:06:12;;;;;;;6.03;1.92;;;;;;;8.12;67.39;100149.22;6257596;22;20018;-73
2022/04/25 00:08:38;;;;;;;6.70;1.67;;;;;;;8.08;68.50;100142.63;6283839;22;20016;-75
2022/04/25 00:11:04;;;;;;;4.72;1.52;;;;;;;8.01;67.91;100147.44;6258726;22;20068;-75
2022/04/25 00:13:29;;;;;;;5.30;1.88;;;;;;;7.95;68.48;100153.91;6256187;22;20083;-74
2022/04/25 00:15:55;;;;;;;5.20;2.20;;;;;;;7.89;68.28;100150.31;6228912;22;20014;-73
2022/04/25 00:18:22;;;;;;;5.78;1.75;;;;;;;7.82;68.59;100155.13;6230180;22;20440;-72
2022/04/25 00:20:48;;;;;;;9.27;1.77;;;;;;;7.79;69.25;100150.19;6252716;22;20070;-74
2022/04/25 00:23:13;;;;;;;5.43;1.92;;;;;;;7.75;70.26;100149.88;6282214;22;20418;-74
2022/04/25 00:25:39;;;;;;;6.57;1.90;;;;;;;7.72;70.09;100147.66;6279561;22;20007;-75
2022/04/25 00:28:05;;;;;;;7.40;2.10;;;;;;;7.68;70.04;100136.47;6253677;22;20011;-74
2022/04/25 00:30:31;;;;;;;5.70;1.92;;;;;;;7.71;69.69;100143.31;6281842;22;20479;-74
2022/04/25 00:32:57;;;;;;;8.48;1.92;;;;;;;7.64;70.05;100142.69;6277174;22;20000;-68
2022/04/25 00:35:24;;;;;;;5.00;2.00;;;;;;;7.61;70.36;100140.47;6247735;22;20038;-69
2022/04/25 00:37:50;;;;;;;8.45;2.55;;;;;;;7.57;70.76;100144.75;6247116;22;20023;-69
2022/04/25 00:40:18;;;;;;;6.50;2.13;;;;;;;7.54;70.89;100148.00;6273153;22;20007;-69
2022/04/25 00:42:44;;;;;;;3.30;1.73;;;;;;;7.53;71.29;100149.88;6249786;22;20014;-69
2022/04/25 00:45:11;;;;;;;10.23;2.20;;;;;;;7.49;70.93;100151.44;6248417;22;20027;-69
2022/04/25 00:47:38;;;;;;;8.25;2.25;;;;;;;7.50;70.77;100148.50;6249263;22;20003;-70
2022/04/25 00:50:04;;;;;;;6.95;2.70;;;;;;;7.53;70.40;100157.22;6274008;22;20031;-69
2022/04/25 00:52:29;;;;;;;6.38;2.08;;;;;;;7.48;70.68;100150.63;6249094;22;20449;-69
2022/04/25 00:54:56;;;;;;;6.38;2.40;;;;;;;7.45;70.85;100156.59;6249816;22;20022;-70
2022/04/25 00:57:21;;;;;;;4.30;2.03;;;;;;;7.42;71.29;100159.81;6273415;22;20000;-74
2022/04/25 00:59:47;;;;;;;5.50;2.53;;;;;;;7.40;71.10;100158.41;6248512;22;20097;-68
2022/04/25 01:02:13;;;;;;;6.72;2.30;;;;;;;7.34;71.45;100152.06;6273348;22;20604;-69
2022/04/25 01:04:38;;;;;;;7.00;2.08;;;;;;;7.22;71.35;100151.38;6273842;22;20014;-70
2022/04/25 01:07:04;;;;;;;5.18;2.15;;;;;;;7.06;71.75;100153.84;6273589;22;20016;-69
2022/04/25 01:09:29;;;;;;;6.25;2.53;;;;;;;6.97;71.98;100155.34;6246101;22;20003;-68
2022/04/25 01:11:58;;;;;;;5.72;2.25;;;;;;;6.85;72.85;100152.72;6272933;22;20524;-70
2022/04/25 01:14:24;;;;;;;4.95;2.17;;;;;;;6.78;73.28;100150.16;6223387;22;20023;-68
2022/04/25 01:16:50;;;;;;;3.85;2.20;;;;;;;6.68;73.60;100163.59;6247437;22;20034;-68
2022/04/25 01:19:16;;;;;;;4.65;2.50;;;;;;;6.58;73.51;100160.72;6249277;22;20007;-67
2022/04/25 01:21:52;;;;;;;5.60;2.33;;;;;;;6.50;74.49;100161.09;6246641;22;20015;-69
2022/04/25 01:27:17;;;;;;;7.20;3.13;;;;;;;6.38;75.93;100159.31;6275054;22;20491;-71
2022/04/25 01:29:54;;;;;;;10.25;3.10;;;;;;;6.29;75.12;100149.88;6276379;22;20012;-71
2022/04/25 01:32:22;;;;;;;13.40;3.03;;;;;;;6.21;75.90;100153.00;6275114;22;19996;-72
2022/04/25 01:34:48;;;;;;;8.43;3.20;;;;;;;6.17;76.91;100158.09;6251722;22;20023;-72
2022/04/25 01:37:16;;;;;;;10.13;3.25;;;;;;;6.08;76.26;100154.13;6278648;22;20007;-73
2022/04/25 01:39:48;;;;;;;12.18;3.95;;;;;;;5.99;76.57;100153.69;6278824;22;19999;-73
2022/04/25 01:42:14;;;;;;;6.75;2.88;;;;;;;5.91;77.68;100145.91;6280310;22;20014;-71
2022/04/25 01:44:40;;;;;;;15.20;3.63;;;;;;;5.83;77.98;100146.28;6251457;22;20137;-71
2022/04/25 01:47:09;;;;;;;10.25;3.45;;;;;;;5.74;77.21;100138.53;6292871;22;20000;-72
2022/04/25 01:49:39;;;;;;;8.60;3.33;;;;;;;5.71;77.95;100151.72;6273118;22;20047;-74
2022/04/25 01:52:28;;;;;;;12.50;3.47;;;;;;;5.64;77.77;100154.59;6260183;22;20000;-72
2022/04/25 01:54:54;;;;;;;9.27;3.78;;;;;;;5.56;77.92;100157.69;6286915;22;20319;-72
2022/04/25 01:57:19;;;;;;;12.18;3.33;;;;;;;5.49;78.22;100148.84;6285530;22;20190;-72
2022/04/25 01:59:45;;;;;;;7.70;3.08;;;;;;;5.43;78.82;100156.03;6283166;22;20387;-74
2022/04/25 02:02:12;;;;;;;9.48;3.83;;;;;;;5.39;79.06;100146.75;6255689;22;20018;-72
2022/04/25 02:04:38;;;;;;;8.30;3.50;;;;;;;5.32;79.44;100148.78;6256035;22;20000;-72
2022/04/25 02:07:06;;;;;;;5.00;3.28;;;;;;;5.39;79.27;100157.59;6256640;22;20004;-73
2022/04/25 02:09:31;;;;;;;9.20;3.40;;;;;;;5.34;79.19;100150.16;6281375;22;20027;-72
2022/04/25 02:11:57;;;;;;;8.15;4.13;;;;;;;5.29;79.51;100152.78;6284066;22;20008;-73
2022/04/25 02:14:22;;;;;;;11.52;4.35;;;;;;;5.28;80.02;100151.13;6250503;22;20024;-73
2022/04/25 02:16:48;;;;;;;10.25;3.70;;;;;;;5.28;79.82;100150.31;6273986;22;20341;-73
2022/04/25 02:19:13;;;;;;;13.07;4.18;;;;;;;5.28;80.21;100151.13;6256750;22;20422;-72
2022/04/25 02:21:39;;;;;;;18.52;4.60;;;;;;;5.28;80.35;100148.41;6252266;22;20095;-74
2022/04/25 02:24:05;;;;;;;9.20;4.55;;;;;;;5.24;80.51;100147.22;6230180;22;20012;-72
2022/04/25 02:26:31;;;;;;;10.90;3.92;;;;;;;5.25;80.55;100146.19;6257512;22;20014;-73
2022/04/25 02:28:57;;;;;;;11.80;4.07;;;;;;;5.18;80.46;100145.47;6282135;22;20029;-73
2022/04/25 02:31:24;;;;;;;10.07;4.13;;;;;;;5.15;80.49;100145.94;6283737;22;20422;-73
2022/04/25 02:33:50;;;;;;;14.88;5.82;;;;;;;5.12;81.02;100143.72;6256204;22;20058;-74
2022/04/25 02:36:16;;;;;;;9.80;4.80;;;;;;;5.05;81.06;100136.53;6284848;22;20028;-73
2022/04/25 02:38:41;;;;;;;8.52;4.15;;;;;;;5.07;81.39;100134.41;6257430;22;20011;-73
2022/04/25 02:41:09;;;;;;;10.00;4.40;;;;;;;5.07;81.50;100142.53;6282283;22;20639;-74
2022/04/25 02:43:42;;;;;;;9.15;3.92;;;;;;;5.04;81.70;100145.72;6255873;22;20516;-75
2022/04/25 02:46:16;;;;;;;8.88;4.20;;;;;;;4.96;81.63;100140.66;6283007;22;19999;-73
2022/04/25 02:48:44;;;;;;;12.15;4.10;;;;;;;4.93;81.63;100133.00;6282610;22;20003;-72
2022/04/25 02:51:10;;;;;;;6.80;4.10;;;;;;;4.97;81.74;100139.59;6255033;22;20461;-74
2022/04/25 02:53:36;;;;;;;9.45;4.35;;;;;;;5.00;82.54;100138.31;6256542;22;20153;-73
2022/04/25 02:56:02;;;;;;;9.77;4.53;;;;;;;4.98;82.17;100137.69;6259112;22;20047;-74
2022/04/25 02:58:29;;;;;;;11.43;4.35;;;;;;;4.98;82.20;100130.41;6257114;22;20078;-76
2022/04/25 03:00:56;;;;;;;7.00;4.47;;;;;;;4.99;82.51;100137.47;6283426;22;20095;-74
2022/04/25 03:03:22;;;;;;;10.60;4.45;;;;;;;4.95;81.87;100125.47;6281997;22;20603;-75
2022/04/25 03:05:50;;;;;;;11.07;4.45;;;;;;;4.93;82.26;100137.59;6256675;22;20003;-74
2022/04/25 03:08:18;;;;;;;7.40;4.35;;;;;;;4.87;82.38;100131.22;6251584;22;20000;-68
2022/04/25 03:10:45;;;;;;;9.93;5.03;;;;;;;4.84;82.52;100134.41;6248878;22;20053;-69
2022/04/25 03:13:15;;;;;;;12.32;5.03;;;;;;;4.79;82.29;100131.56;6246790;22;20406;-68
2022/04/25 03:15:41;;;;;;;11.48;4.72;;;;;;;4.73;82.44;100133.34;6276850;22;20015;-69
2022/04/25 03:18:09;;;;;;;8.88;3.83;;;;;;;4.68;82.36;100136.75;6272990;22;20034;-69
2022/04/25 03:20:34;;;;;;;8.55;4.82;;;;;;;4.68;82.69;100152.19;6249810;22;20012;-69
2022/04/25 03:23:00;;;;;;;7.72;4.05;;;;;;;4.64;82.50;100149.09;6276353;22;20434;-69
2022/04/25 03:25:26;;;;;;;6.82;3.90;;;;;;;4.60;82.57;100150.66;6275251;22;20498;-70
2022/04/25 03:27:52;;;;;;;6.60;3.88;;;;;;;4.52;82.67;100135.53;6275940;22;20004;-68
2022/04/25 03:30:18;;;;;;;10.93;4.00;;;;;;;4.50;82.35;100144.97;6246924;22;20110;-69
2022/04/25 03:32:47;;;;;;;6.30;4.47;;;;;;;4.45;82.79;100145.66;6251243;22;20053;-69
2022/04/25 03:35:14;;;;;;;5.55;3.75;;;;;;;4.46;82.64;100149.22;6275012;22;20010;-69
2022/04/25 03:37:40;;;;;;;7.05;4.03;;;;;;;4.44;83.12;100145.88;6248753;22;20085;-68
2022/04/25 03:40:06;;;;;;;7.70;4.47;;;;;;;4.40;83.17;100140.13;6247920;22;20094;-73
2022/04/25 03:42:31;;;;;;;9.80;4.13;;;;;;;4.37;83.27;100136.00;6251588;22;20035;-73
2022/04/25 03:44:57;;;;;;;10.15;4.60;;;;;;;4.36;83.20;100139.75;6253831;22;20017;-74
2022/04/25 03:47:23;;;;;;;9.05;4.25;;;;;;;4.33;83.22;100142.94;6251547;22;20366;-74
2022/04/25 03:49:49;;;;;;;12.30;5.38;;;;;;;4.29;83.66;100125.53;6277384;22;20007;-74
2022/04/25 03:52:14;;;;;;;14.68;5.50;;;;;;;4.29;83.46;100130.09;6253210;22;20007;-73
2022/04/25 03:57:23;;;;;;;11.18;4.97;;;;;;;4.26;83.60;100128.66;6254440;22;20046;-74
2022/04/25 03:59:49;;;;;;;19.63;5.20;;;;;;;4.21;83.87;100117.72;6226928;22;19995;-73
2022/04/25 04:02:14;;;;;;;8.02;4.57;;;;;;;4.45;84.13;100131.31;6226392;22;20027;-75
2022/04/25 04:04:40;;;;;;;11.82;5.25;;;;;;;4.41;83.89;100124.69;6227177;22;20012;-75
2022/04/25 04:07:06;;;;;;;9.05;4.93;;;;;;;4.40;83.49;100123.06;6250707;22;20393;-74
2022/04/25 04:09:47;;;;;;;15.63;5.10;;;;;;;4.40;83.83;100121.19;6225861;22;20007;-74
2022/04/25 04:12:14;;;;;;;13.55;5.30;;;;;;;4.36;83.65;100123.50;6255449;22;20014;-71
2022/04/25 04:14:40;;;;;;;9.63;5.30;;;;;;;4.33;83.56;100132.09;6274147;22;20047;-72
2022/04/25 04:17:07;;;;;;;9.25;4.95;;;;;;;4.31;83.98;100136.94;6281940;22;20014;-74
2022/04/25 04:19:33;;;;;;;9.50;5.13;;;;;;;4.26;84.17;100139.50;6254886;22;20007;-74
2022/04/25 04:22:01;;;;;;;6.72;4.45;;;;;;;4.15;83.92;100130.28;6252268;22;20011;-73
2022/04/25 04:24:27;;;;;;;11.65;4.45;;;;;;;4.21;83.94;100143.97;6247880;22;20561;-73
2022/04/25 04:26:52;;;;;;;7.63;4.43;;;;;;;4.15;83.89;100140.31;6221739;22;20087;-72
2022/04/25 04:29:18;;;;;;;7.47;4.43;;;;;;;4.13;84.25;100145.09;6225921;22;20031;-72
2022/04/25 04:31:46;;;;;;;6.00;4.60;;;;;;;4.11;84.13;100147.22;6275588;22;20062;-72
2022/04/25 04:34:11;;;;;;;6.45;4.40;;;;;;;4.04;84.42;100141.06;6278132;22;20000;-72
2022/04/25 04:36:37;;;;;;;11.43;4.95;;;;;;;4.02;84.20;100141.31;6223413;22;20498;-73
2022/04/25 04:39:02;;;;;;;9.65;4.57;;;;;;;3.98;84.33;100138.22;6246650;22;20046;-73
2022/04/25 04:41:28;;;;;;;9.23;4.50;;;;;;;4.00;83.99;100151.53;6282376;22;20015;-74
2022/04/25 04:43:57;;;;;;;5.18;3.97;;;;;;;3.89;84.40;100147.72;6259309;22;20019;-74
2022/04/25 04:46:29;;;;;;;10.02;4.57;;;;;;;3.93;84.99;100162.44;6255975;22;20004;-68
2022/04/25 04:48:54;;;;;;;8.63;4.00;;;;;;;3.92;84.90;100163.50;6226871;22;20100;-69
2022/04/25 04:51:20;;;;;;;8.13;4.32;;;;;;;3.89;84.49;100163.13;6278440;22;20041;-74
2022/04/25 04:53:45;;;;;;;12.35;4.80;;;;;;;3.81;84.71;100151.56;6260272;22;20007;-72
2022/04/25 04:56:11;;;;;;;6.80;4.30;;;;;;;3.78;84.44;100153.91;6274455;22;20011;-69
2022/04/25 04:58:36;;;;;;;8.52;4.28;;;;;;;3.87;84.88;100167.94;6222656;22;20035;-69
2022/04/25 05:01:02;;;;;;;8.88;5.07;;;;;;;3.83;84.94;100167.56;6246966;22;20008;-70
2022/04/25 05:03:27;;;;;;;9.73;4.60;;;;;;;3.87;85.07;100174.19;6247892;22;20003;-69
2022/04/25 05:05:54;;;;;;;7.40;4.43;;;;;;;3.90;84.99;100176.44;6247483;22;20082;-69
2022/04/25 05:08:20;;;;;;;11.85;5.40;;;;;;;3.88;85.21;100165.00;6248261;22;20014;-68
2022/04/25 05:10:46;;;;;;;9.98;5.15;;;;;;;3.98;85.13;100181.50;6274557;22;20031;-68
2022/04/25 05:13:11;;;;;;;7.95;4.95;;;;;;;4.00;84.87;100184.00;6272346;22;20020;-70
2022/04/25 05:15:37;;;;;;;12.80;5.10;;;;;;;4.07;85.02;100183.91;6252873;22;20011;-68
2022/04/25 05:18:03;;;;;;;9.52;4.78;;;;;;;4.13;84.99;100188.41;6283492;22;20011;-74
2022/04/25 05:20:29;;;;;;;10.05;5.35;;;;;;;4.15;85.38;100186.31;6256515;22;20402;-72
2022/04/25 05:22:55;;;;;;;14.00;5.60;;;;;;;4.17;85.04;100178.78;6253704;22;20016;-75
2022/04/25 05:25:23;;;;;;;8.90;5.30;;;;;;;4.28;85.33;100188.81;6253776;22;20011;-72
2022/04/25 05:27:51;;;;;;;9.40;4.75;;;;;;;4.34;85.32;100190.59;6281485;22;20003;-74
2022/04/25 05:30:18;;;;;;;16.08;5.88;;;;;;;4.42;85.03;100196.75;6278834;22;20007;-76
2022/04/25 05:32:46;;;;;;;10.38;5.45;;;;;;;4.50;85.02;100197.25;6282983;22;20003;-75
2022/04/25 05:35:15;;;;;;;9.48;5.63;;;;;;;4.54;84.97;100200.31;6284458;22;20035;-74
2022/04/25 05:37:41;;;;;;;11.80;5.80;;;;;;;4.66;84.65;100200.34;6256350;22;20015;-74
2022/04/25 05:40:08;;;;;;;14.18;5.85;;;;;;;4.72;84.67;100200.25;6278113;22;20053;-73
2022/04/25 05:42:35;;;;;;;10.70;6.70;;;;;;;4.88;84.64;100206.03;6254385;22;20004;-74
2022/04/25 05:45:01;;;;;;;13.52;6.90;;;;;;;4.97;84.80;100209.25;6281726;22;20003;-72
2022/04/25 05:47:27;;;;;;;9.90;6.00;;;;;;;4.98;84.03;100198.16;6254874;22;20389;-72
2022/04/25 05:52:37;;;;;;;15.75;6.40;;;;;;;5.25;84.23;100211.25;6283561;22;20015;-75
2022/04/25 05:55:03;;;;;;;10.10;5.65;;;;;;;5.41;83.55;100213.22;6255291;22;19999;-73
2022/04/25 05:57:29;;;;;;;12.15;6.15;;;;;;;5.50;83.74;100210.16;6229726;22;20007;-73
2022/04/25 05:59:54;;;;;;;12.57;6.03;;;;;;;5.61;83.28;100209.34;6281715;22;20057;-73
2022/04/25 06:02:20;;;;;;;15.75;6.53;;;;;;;5.69;83.01;100208.13;6281234;22;20012;-75
2022/04/25 06:04:46;;;;;;;12.65;5.90;;;;;;;5.85;82.56;100220.13;6255589;22;20091;-74
2022/04/25 06:07:11;;;;;;;11.90;6.80;;;;;;;5.90;82.70;100223.78;6283891;22;20059;-74
2022/04/25 06:09:37;;;;;;;13.70;6.50;;;;;;;5.99;82.49;100221.56;6249827;22;20361;-73
2022/04/25 06:12:02;;;;;;;10.07;5.72;;;;;;;6.04;82.12;100212.69;6280444;22;20385;-74
2022/04/25 06:14:30;;;;;;;17.30;6.72;;;;;;;6.17;82.59;100223.25;6280575;22;20007;-73
2022/04/25 06:16:56;;;;;;;10.48;6.30;;;;;;;6.33;81.18;100227.09;6278451;22;20019;-71
2022/04/25 06:19:24;;;;;;;12.15;6.70;;;;;;;6.47;81.36;100222.19;6279219;22;20015;-72
2022/04/25 06:21:49;;;;;;;16.05;6.63;;;;;;;6.55;80.90;100224.50;6253204;22;20126;-75
2022/04/25 06:24:15;;;;;;;13.82;6.45;;;;;;;6.65;80.01;100234.75;6279879;22;20011;-74
2022/04/25 06:26:40;;;;;;;9.93;6.00;;;;;;;6.73;80.05;100234.34;6252022;22;20008;-74
2022/04/25 06:29:06;;;;;;;12.73;5.82;;;;;;;6.84;79.66;100243.50;6256065;22;20018;-74
2022/04/25 06:31:32;;;;;;;11.70;6.03;;;;;;;7.01;80.35;100242.66;6256447;22;20011;-73
2022/04/25 06:33:58;;;;;;;10.80;5.43;;;;;;;7.16;79.53;100246.47;6257513;22;20054;-75
2022/04/25 06:36:24;;;;;;;8.35;4.97;;;;;;;7.23;78.80;100242.75;6284836;22;20004;-75
2022/04/25 06:38:50;;;;;;;11.80;5.72;;;;;;;7.29;78.33;100244.50;6283563;22;20004;-74
2022/04/25 06:41:16;;;;;;;10.30;5.22;;;;;;;7.36;78.26;100234.28;6283232;22;20051;-74
2022/04/25 06:43:42;;;;;;;11.57;5.10;;;;;;;7.46;77.87;100245.31;6232182;22;20667;-73
2022/04/25 06:46:07;;;;;;;6.80;4.38;;;;;;;7.57;78.12;100246.25;6282061;22;20010;-73
2022/04/25 06:48:33;;;;;;;8.02;4.85;;;;;;;7.70;77.55;100245.09;6282369;22;20032;-74
2022/04/25 06:51:01;;;;;;;11.93;5.78;;;;;;;7.80;76.55;100244.41;6283379;22;20547;-74
2022/04/25 06:53:27;;;;;;;9.82;5.20;;;;;;;7.95;77.03;100249.22;6257428;22;20331;-75
2022/04/25 06:55:52;;;;;;;9.52;4.90;;;;;;;8.07;76.40;100249.91;6283571;22;20087;-76
2022/04/25 06:58:18;;;;;;;12.00;5.25;;;;;;;8.59;75.50;100251.34;6228883;22;20011;-73
2022/04/25 07:00:43;;;;;;;8.05;4.47;;;;;;;8.85;74.64;100257.06;6256980;22;20026;-74
2022/04/25 07:03:09;;;;;;;8.68;4.50;;;;;;;8.95;73.73;100264.50;6232219;22;20014;-74
2022/04/25 07:08:29;;;;;;;8.73;4.03;;;;;;;9.12;72.66;100254.28;6280125;22;20361;-76
2022/04/25 07:10:54;;;;;;;4.95;3.85;;;;;;;9.31;72.90;100256.59;6232932;22;20031;-76
2022/04/25 07:13:20;;;;;;;12.48;4.72;;;;;;;9.48;71.58;100256.47;6231697;22;20342;-74
2022/04/25 07:15:45;;;;;;;9.98;3.72;;;;;;;9.71;71.03;100256.06;6255176;22;20016;-73
2022/04/25 07:18:13;;;;;;;7.75;3.50;;;;;;;9.89;70.52;100254.78;6258863;22;20016;-74
2022/04/25 07:20:38;;;;;;;8.98;3.05;;;;;;;10.07;69.73;100260.88;6236195;22;20015;-76
2022/04/25 07:28:52;;;;;;;5.28;2.60;;;;;;;10.52;66.56;100269.53;6284758;22;20096;-75
2022/04/25 07:31:18;;;;;;;11.10;3.53;;;;;;;10.78;66.03;100273.97;6259192;22;20334;-76
2022/04/25 07:33:45;;;;;;;5.47;3.00;;;;;;;11.26;65.68;100268.25;6286530;22;20865;-75
2022/04/25 07:36:12;;;;;;;6.72;3.13;;;;;;;11.67;63.27;100279.16;6287949;22;20011;-75
2022/04/25 07:38:42;;;;;;;7.13;2.53;;;;;;;11.99;62.79;100280.75;6283782;22;20113;-75
2022/04/25 07:41:16;;;;;;;6.13;2.50;;;;;;;12.22;61.63;100275.72;6256872;22;20003;-75
2022/04/25 07:43:44;;;;;;;7.72;3.00;;;;;;;12.44;60.95;100280.00;6243771;22;20011;-73
2022/04/25 07:46:09;;;;;;;7.22;2.40;;;;;;;12.64;60.87;100285.38;6277385;22;20422;-71
2022/04/25 07:48:35;;;;;;;4.22;2.17;;;;;;;12.85;60.29;100280.59;6224795;22;20046;-72
2022/04/25 07:51:00;;;;;;;7.60;2.75;;;;;;;13.21;58.73;100287.75;6276228;22;20342;-71
2022/04/25 07:53:27;;;;;;;7.45;2.03;;;;;;;13.33;58.42;100288.22;6250311;22;20310;-71
2022/04/25 07:55:52;;;;;;;5.85;2.92;;;;;;;13.40;57.51;100285.97;6279420;22;20023;-75
2022/04/25 07:58:18;;;;;;;13.82;3.10;;;;;;;13.50;57.60;100290.53;6249819;22;20011;-73
2022/04/25 08:00:43;;;;;;;17.08;4.88;;;;;;;13.56;56.71;100291.31;6227445;22;20065;-72
2022/04/25 08:03:09;;;;;;;11.43;3.85;;;;;;;13.51;55.98;100296.88;6276338;22;20043;-74
2022/04/25 08:05:34;;;;;;;13.98;3.65;;;;;;;13.37;56.29;100288.47;6254494;22;20004;-72
2022/04/25 08:08:00;;;;;;;5.40;2.40;;;;;;;13.40;55.30;100291.47;6256764;22;20138;-76
2022/04/25 08:10:25;;;;;;;10.00;2.20;;;;;;;13.22;55.57;100294.88;6259427;22;20007;-74
2022/04/25 08:18:18;;;;;;;5.70;1.75;;;;;;;13.23;55.53;100294.59;6239560;22;20018;-73
2022/04/25 08:20:44;;;;;;;4.00;1.60;;;;;;;13.25;55.30;100300.59;6284621;22;20008;-75
2022/04/25 08:23:12;;;;;;;4.53;1.52;;;;;;;13.48;55.28;100302.91;6262222;22;20012;-77
2022/04/25 08:25:39;;;;;;;4.07;1.63;;;;;;;13.66;54.68;100296.72;6237568;22;20038;-74
2022/04/25 08:28:07;;;;;;;3.38;1.67;;;;;;;13.70;53.97;100288.72;6289172;22;20004;-75
2022/04/25 08:30:33;;;;;;;6.32;1.70;;;;;;;13.69;54.17;100298.06;6288714;22;20377;-76
2022/04/25 08:32:59;;;;;;;3.83;2.03;;;;;;;13.77;54.11;100295.50;6237713;22;20059;-76
2022/04/25 08:35:25;;;;;;;3.58;1.58;;;;;;;13.82;54.14;100302.06;6289542;22;20000;-75
2022/04/25 08:37:50;;;;;;;3.63;1.77;;;;;;;13.84;53.75;100305.31;6265552;22;20090;-72
2022/04/25 08:40:16;;;;;;;3.33;1.98;;;;;;;13.97;53.70;100304.63;6263588;22;20008;-77
2022/04/25 08:42:42;;;;;;;5.20;2.03;;;;;;;13.99;53.29;100309.84;6289926;22;20018;-75
2022/04/25 08:45:17;;;;;;;4.32;1.95;;;;;;;13.99;53.15;100302.44;6290602;22;20004;-79
2022/04/25 08:47:49;;;;;;;6.18;1.85;;;;;;;14.05;51.98;100312.25;6259243;22;20071;-75
2022/04/25 08:50:21;;;;;;;8.55;2.20;;;;;;;13.87;51.76;100282.75;6289151;22;20049;-76
2022/04/25 08:52:47;;;;;;;8.65;2.17;;;;;;;14.02;52.11;100306.50;6282709;22;20015;-72
2022/04/25 08:55:14;;;;;;;5.65;2.20;;;;;;;14.31;51.85;100326.53;6277552;22;20386;-71
2022/04/25 08:57:41;;;;;;;3.78;1.83;;;;;;;14.91;51.19;100321.63;6273079;22;20426;-72
2022/04/25 09:00:08;;;;;;;4.88;1.77;;;;;;;15.45;50.27;100325.75;6279186;22;20034;-72
2022/04/25 09:02:40;;;;;;;5.03;1.80;;;;;;;15.66;49.23;100331.72;6251513;22;20083;-71
2022/04/25 09:05:09;;;;;;;6.07;1.80;;;;;;;15.45;49.69;100323.00;6275655;22;20038;-72
2022/04/25 09:07:37;;;;;;;3.22;1.70;;;;;;;15.51;49.35;100332.81;6223536;22;20022;-72
2022/04/25 09:10:08;;;;;;;4.60;2.20;;;;;;;15.63;49.04;100328.78;6274971;22;20013;-72
2022/04/25 09:12:38;;;;;;;6.28;1.90;;;;;;;15.42;48.28;100328.28;6251726;22;20004;-71
2022/04/25 09:15:09;;;;;;;3.55;1.77;;;;;;;15.26;49.01;100333.22;6276707;22;20054;-73
2022/04/25 09:17:38;;;;;;;5.75;1.75;;;;;;;15.38;49.05;100341.88;6247866;22;20015;-72
2022/04/25 09:20:07;;;;;;;2.53;1.55;;;;;;;15.56;48.48;100336.63;6274670;22;20365;-72
2022/04/25 09:22:36;;;;;;;5.00;1.50;;;;;;;15.81;48.43;100338.97;6276075;22;20007;-72
2022/04/25 09:25:10;;;;;;;4.68;2.00;;;;;;;15.97;47.29;100344.19;6275454;22;19999;-73
2022/04/25 09:27:36;;;;;;;5.28;1.70;;;;;;;16.12;47.85;100332.88;6276755;22;20012;-72
2022/04/25 09:30:19;;;;;;;5.85;2.08;;;;;;;16.32;47.30;100344.63;6275083;22;20002;-72
2022/04/25 09:32:46;;;;;;;5.50;2.03;;;;;;;16.73;46.39;100346.53;6274136;22;20000;-71
2022/04/25 09:35:27;;;;;;;8.18;1.63;;;;;;;17.01;46.02;100354.78;6249932;22;20007;-73
2022/04/25 09:37:52;;;;;;;5.07;1.50;;;;;;;17.37;45.44;100359.47;6279641;22;20015;-72
2022/04/25 09:40:21;;;;;;;1.88;1.20;;;;;;;17.72;45.32;100359.72;6252275;22;20055;-74
2022/04/25 09:42:48;;;;;;;2.40;1.15;;;;;;;17.99;44.51;100360.69;6275996;22;20011;-73
2022/04/25 09:45:15;;;;;;;2.08;1.40;;;;;;;18.19;43.92;100357.38;6256437;22;20022;-74
2022/04/25 09:47:41;;;;;;;5.50;1.70;;;;;;;18.47;43.25;100365.47;6279636;22;20011;-72
2022/04/25 09:50:09;;;;;;;2.70;1.25;;;;;;;18.91;42.88;100360.88;6280805;22;20030;-71
2022/04/25 09:52:53;;;;;;;5.43;2.08;;;;;;;19.23;42.15;100372.66;6284441;22;19996;-74
2022/04/25 09:55:21;;;;;;;3.38;1.67;;;;;;;19.38;40.11;100376.88;6277676;22;20014;-74
2022/04/25 09:57:48;;;;;;;7.50;1.70;;;;;;;19.80;40.53;100379.13;6275786;22;20426;-73
2022/04/25 10:03:39;;;;;;;3.08;1.20;;;;;;;21.05;38.66;100377.94;6279236;22;20018;-72
2022/04/25 10:06:05;;;;;;;5.10;1.48;;;;;;;21.41;36.93;100367.34;6279820;22;20465;-72
2022/04/25 10:08:35;;;;;;;3.00;1.23;;;;;;;21.30;36.03;100360.56;6279549;22;20004;-71
2022/04/25 10:11:07;;;;;;;5.03;1.45;;;;;;;21.12;35.90;100365.47;6252610;22;20011;-73
2022/04/25 10:13:33;;;;;;;4.13;1.80;;;;;;;21.21;36.19;100385.69;6278178;22;20485;-75
2022/04/25 10:16:00;;;;;;;2.05;0.90;;;;;;;21.84;36.38;100384.81;6280147;22;20019;-74
2022/04/25 10:18:32;;;;;;;6.20;1.02;;;;;;;21.98;35.90;100385.31;6277620;22;20024;-72
2022/04/25 10:21:00;;;;;;;4.45;1.50;;;;;;;21.44;34.96;100375.03;6277831;22;20003;-75
2022/04/25 10:23:25;;;;;;;4.97;1.77;;;;;;;21.50;35.21;100389.53;6224217;22;20008;-73
2022/04/25 10:25:54;;;;;;;2.97;1.60;;;;;;;22.53;33.54;100394.38;6251315;22;20026;-73
2022/04/25 10:28:28;;;;;;;4.05;1.05;;;;;;;23.14;33.02;100374.00;6277537;22;20003;-74
2022/04/25 10:30:57;;;;;;;;;;;;;;;24.26;32.43;100387.44;6250856;22;20003;-72
2022/04/25 10:33:23;;;;;;;1.42;0.60;;;;;;;26.96;28.69;100398.50;6275230;22;19903;-74
2022/04/25 10:35:50;;;;;;;5.80;1.65;;;;;;;27.20;27.73;100391.59;6251270;22;20822;-74
2022/04/25 10:38:47;;;;;;;2.40;1.25;;;;;;;25.19;28.92;100389.66;6276281;22;20421;-74
2022/04/25 10:44:17;;;;;;;3.92;1.27;;;;;;;23.32;31.93;100396.03;6253959;22;20512;-73
2022/04/25 10:47:05;;;;;;;3.22;1.05;;;;;;;24.08;31.93;100393.38;6276946;22;20446;-75
2022/04/25 10:49:37;;;;;;;4.38;1.00;;;;;;;25.94;28.58;100395.16;6277087;22;19999;-75
2022/04/25 10:55:19;;;;;;;1.17;0.75;;;;;;;25.50;28.85;100395.50;6270227;22;20098;-77
2022/04/25 10:58:03;;;;;;;1.50;0.90;;;;;;;29.89;24.97;100402.66;6285528;22;20078;-77
2022/04/25 11:00:38;;;;;;;1.63;0.70;;;;;;;34.36;21.40;100411.00;6283834;22;20007;-78
2022/04/25 11:03:08;;;;;;;1.55;0.57;;;;;;;37.78;18.24;100407.97;6253429;22;20027;-76
2022/04/25 11:05:39;;;;;;;1.88;0.88;;;;;;;39.31;16.62;100400.34;6280430;22;20520;-72
2022/04/25 11:08:20;;;;;;;1.48;0.65;;;;;;;40.50;15.91;100406.31;6279650;22;20007;-75
2022/04/25 11:10:50;;;;;;;1.30;0.70;;;;;;;38.29;16.65;100393.72;6280001;22;19999;-75
2022/04/25 11:13:19;;;;;;;1.50;0.90;;;;;;;34.53;18.53;100403.44;6252074;22;20062;-73
2022/04/25 11:15:53;;;;;;;2.22;1.02;;;;;;;31.15;20.39;100388.53;6275458;22;20579;-74
2022/04/25 11:18:28;;;;;;;;;;;;;;;28.68;22.64;100382.75;6276233;22;20012;-73
2022/04/25 11:21:17;;;;;;;;;;;;;;;;;;;;;
2022/04/25 11:23:45;;;;;;;1.52;0.90;;;;;;;33.15;20.04;100384.69;6276139;22;20087;-75
2022/04/25 11:26:36;;;;;;;2.78;0.98;;;;;;;36.75;17.03;100384.84;6275914;22;20012;-73
2022/04/25 11:29:10;;;;;;;2.53;0.80;;;;;;;36.28;16.51;100386.84;6244708;22;20072;-74
2022/04/25 11:31:38;;;;;;;1.08;0.85;;;;;;;32.45;18.50;100376.50;6261745;22;20015;-73
2022/04/25 11:34:05;;;;;;;2.67;1.20;;;;;;;29.55;21.09;100366.31;6279101;22;20019;-73
2022/04/25 11:36:36;;;;;;;2.30;0.80;;;;;;;29.30;21.44;100372.66;6276601;22;20007;-74
2022/04/25 11:41:47;;;;;;;1.17;0.80;;;;;;;38.27;16.48;100381.94;6277673;22;20064;-76
2022/04/25 11:44:13;;;;;;;3.72;1.30;;;;;;;40.53;13.39;100370.97;6275984;22;20019;-74
2022/04/25 11:46:52;;;;;;;;;;;;;;;;;;;;;
2022/04/25 11:49:29;;;;;;;2.30;1.30;;;;;;;38.13;13.91;100382.41;6275708;22;20083;-74
2022/04/25 11:51:58;;;;;;;2.55;0.77;;;;;;;34.20;16.08;100357.75;6246183;22;20013;-74
2022/04/25 11:54:30;;;;;;;2.47;1.30;;;;;;;35.53;16.66;100385.72;6248666;22;20407;-75
2022/04/25 11:57:02;;;;;;;2.42;0.75;;;;;;;39.79;13.79;100380.13;6276415;22;20474;-74
2022/04/25 11:59:29;;;;;;;2.05;0.93;;;;;;;41.73;12.53;100390.91;6278024;22;20004;-76
2022/04/25 12:01:55;;;;;;;2.60;0.80;;;;;;;37.91;13.82;100377.41;6277513;22;20003;-74
2022/04/25 12:04:27;;;;;;;2.53;1.02;;;;;;;33.98;15.89;100372.28;6249284;22;20082;-69
2022/04/25 12:07:07;;;;;;;3.13;1.20;;;;;;;36.36;16.10;100378.13;6247385;22;20412;-69
2022/04/25 12:18:30;;;;;;;3.95;1.00;;;;;;;40.02;13.72;100384.53;6274699;22;20117;-70